Holiday, California
Current Conditions -  °F | °C
As of 7:53 AM on Saturday 20 Dec 2014 (Local Time) from KFUL Reporting Station
Haze Haze  
Wind Chill: 51°   Ceiling: Unl
Heat Index: 51°   Visibility: 4mi
Dew Point: 47°   Wind: 3mph
Humidity: 86%   Direction: 60°ENE
Pressure: 30.17"   Gusts: NA
Location:  33.8084°N, 117.923°W
Report Text: KFUL 201553Z 06003KT 4SM BR CLR 11/08 A3017 RMK AO2 SLP217 T01060083
Loading
Personal Weather Stations






























Interactive Weather Map New forecast layout! Learn more

10-Day Weather Forecast

Advertisements
Track Severe Weather on mobile